Latest Weather Observations for Mackay

IDQ60801

Issued at 7:36 pm EST Monday 22 December 2014 (issued every 30 minutes, with the page automatically refreshed every 10 minutes)

About weather observations | Map of weather stations | Latest weather observations for QLD | Other Formats
Station Details ID: 033119 Name: MACKAY M.O Lat: -21.12 Lon: 149.22 Height: 30.26 m
Data from the previous 72 hours. | See also: Recent months at Mackay
Date/Time
EST
Temp
°C
App
Temp
°C
Dew
Point
Rel
Hum
%
Delta-T
°C
Wind Press
QNH
hPa
Press
MSL
hPa
Rain
since 9 am
mm
Dir
 
Spd
km/h
Gust
km/h
Spd
kts
Gust
kts
22/06:30pm 26.5 25.8 18.3 60 5.2 ESE 19 30 10 16 1012.9 1012.6 0.0
22/05:30pm 27.4 27.4 19.0 60 5.4 ESE 17 26 9 14 1012.5 1012.2 0.0
22/05:00pm 28.0 27.6 18.1 55 6.3 SE 17 28 9 15 1012.4 1012.1 0.0
22/04:30pm 28.3 28.3 19.0 57 6.0 ESE 17 30 9 16 1012.1 1011.8 0.0
22/04:00pm 28.9 29.2 18.7 54 6.6 ESE 15 26 8 14 1012.1 1011.8 0.0
22/03:30pm 29.0 28.6 18.8 54 6.6 SE 19 28 10 15 1012.1 1011.8 0.0
22/03:00pm 29.2 28.8 18.8 53 6.7 ESE 19 28 10 15 1012.6 1012.3 0.0
22/02:30pm 29.2 28.7 18.6 52 6.8 SE 19 30 10 16 1012.9 1012.6 0.0
22/02:00pm 29.9 28.8 17.8 48 7.7 SE 20 32 11 17 1013.1 1012.8 0.0
22/01:30pm 29.2 28.9 19.2 54 6.5 SE 19 32 10 17 1013.5 1013.2 0.0
22/01:00pm 30.0 29.3 18.3 49 7.5 SE 19 30 10 16 1013.8 1013.5 0.0
22/12:30pm 29.0 28.2 18.4 52 6.8 SE 20 30 11 16 1014.0 1013.7 0.0
22/11:30am 29.7 29.4 19.2 53 6.8 SE 19 32 10 17 1014.5 1014.2 0.0
22/11:00am 28.3 28.2 19.5 59 5.7 ESE 19 28 10 15 1014.5 1014.2 0.0
22/10:30am 29.4 29.8 19.1 54 6.7 SE 15 26 8 14 1014.7 1014.4 0.0
22/10:00am 29.2 29.6 19.0 54 6.6 ESE 15 28 8 15 1014.6 1014.3 0.0
22/09:30am 28.8 28.6 18.5 53 6.6 ESE 17 28 9 15 1014.5 1014.2 0.0
22/09:00am 28.8 29.1 18.7 54 6.5 E 15 22 8 12 1014.5 1014.2 0.0
22/08:30am 28.4 28.7 19.7 59 5.7 E 17 24 9 13 1014.3 1014.0 0.0
22/08:00am 27.9 28.7 19.9 61 5.2 E 15 24 8 13 1014.4 1014.1 0.0
22/07:00am 26.8 27.8 19.5 64 4.7 E 13 20 7 11 1013.9 1013.6 0.0
22/06:30am 26.8 27.0 19.4 64 4.8 E 17 26 9 14 1013.4 1013.1 0.0
22/05:30am 25.8 25.6 18.6 64 4.6 E 17 24 9 13 1012.7 1012.4 0.0
22/05:00am 26.0 25.8 18.6 63 4.7 E 17 26 9 14 1012.5 1012.2 0.0
22/04:30am 25.9 26.1 19.4 67 4.2 E 17 28 9 15 1012.4 1012.1 0.0
22/04:00am 25.9 27.2 20.1 70 3.8 E 13 22 7 12 1012.4 1012.1 0.0
22/03:30am 25.8 27.5 20.1 71 3.7 ENE 11 19 6 10 1012.5 1012.2 0.0
22/03:00am 25.9 26.6 19.7 68 4.0 E 15 22 8 12 1012.5 1012.2 0.0
22/02:30am 26.1 26.4 18.7 63 4.7 E 15 24 8 13 1012.8 1012.5 0.0
22/02:00am 26.0 26.3 19.5 67 4.2 E 17 24 9 13 1012.8 1012.5 0.0
22/01:30am 26.2 27.1 20.1 69 4.0 ESE 15 22 8 12 1013.2 1012.9 0.0
22/01:00am 26.2 27.2 20.2 69 3.9 E 15 24 8 13 1013.4 1013.1 0.0
22/12:30am 26.2 26.3 19.9 68 4.1 E 19 28 10 15 1013.3 1013.0 0.0
22/12:00am 26.2 26.9 20.4 70 3.8 E 17 24 9 13 1013.8 1013.5 0.0
 
Date/Time
EST
Temp
°C
App
Temp
°C
Dew
Point
Rel
Hum
%
Delta-T
°C
Wind Press
QNH
hPa
Press
MSL
hPa
Rain
since 9 am
mm
Dir
 
Spd
km/h
Gust
km/h
Spd
kts
Gust
kts
21/11:30pm 26.2 26.4 20.2 69 3.9 E 19 30 10 16 1014.1 1013.8 0.0
21/11:00pm 26.3 27.0 20.5 70 3.8 E 17 26 9 14 1014.2 1013.9 0.0
21/10:30pm 26.5 27.1 20.2 68 4.1 E 17 24 9 13 1014.4 1014.1 0.0
21/10:00pm 26.5 26.9 20.6 70 3.9 E 19 28 10 15 1014.4 1014.1 0.0
21/09:30pm 26.6 27.4 20.7 70 3.9 E 17 28 9 15 1014.3 1014.0 0.0
21/09:00pm 26.7 27.7 21.1 71 3.7 E 17 26 9 14 1014.1 1013.8 0.0
21/08:30pm 26.8 27.7 21.5 72 3.5 E 19 32 10 17 1014.0 1013.7 0.0
21/08:00pm 26.7 27.6 20.8 70 3.9 E 17 28 9 15 1013.9 1013.6 0.0
21/07:30pm 26.9 27.5 20.3 67 4.3 E 17 26 9 14 1013.9 1013.6 0.0
21/07:00pm 26.9 27.4 20.8 69 4.0 E 19 28 10 15 1013.5 1013.2 0.0
21/06:30pm 27.0 27.7 20.5 67 4.3 E 17 28 9 15 1013.2 1012.9 0.0
21/06:00pm 27.6 28.7 20.5 65 4.7 ESE 15 24 8 13 1013.0 1012.7 0.0
21/05:30pm 28.4 30.2 21.2 65 4.8 ESE 13 28 7 15 1012.7 1012.4 0.0
21/05:00pm 28.4 28.6 19.3 57 5.9 E 17 28 9 15 1012.5 1012.2 0.0
21/04:30pm 28.2 29.3 20.5 63 5.1 ESE 15 24 8 13 1012.6 1012.3 0.0
21/04:00pm 28.9 29.1 19.4 56 6.2 ESE 17 26 9 14 1012.6 1012.3 0.0
21/03:30pm 28.9 29.3 20.6 61 5.5 ESE 19 26 10 14 1012.6 1012.3 0.0
21/03:00pm 29.4 29.9 21.2 61 5.5 ESE 20 30 11 16 1012.9 1012.6 0.0
21/02:30pm 28.9 30.4 21.3 63 5.1 ESE 15 24 8 13 1013.2 1012.9 0.0
21/02:00pm 29.6 30.7 20.5 58 6.0 ESE 15 26 8 14 1013.5 1013.2 0.0
21/01:30pm 29.3 30.6 20.9 60 5.6 ESE 15 24 8 13 1013.9 1013.6 0.0
21/01:00pm 29.4 30.3 20.0 57 6.2 ESE 15 26 8 14 1014.2 1013.9 0.0
21/12:30pm 29.3 30.4 20.5 59 5.8 ESE 15 20 8 11 1014.3 1014.0 0.0
21/12:00pm 30.4 31.8 20.3 54 6.7 ESE 13 20 7 11 1014.5 1014.2 0.0
21/11:30am 30.1 31.3 20.6 56 6.3 ESE 15 22 8 12 1014.7 1014.4 0.0
21/11:00am 29.5 31.4 21.4 61 5.4 E 13 20 7 11 1014.7 1014.4 0.0
21/10:30am 29.8 31.1 20.9 59 5.9 E 15 20 8 11 1014.7 1014.4 0.0
21/10:00am 30.2 31.5 20.9 57 6.2 E 15 22 8 12 1014.7 1014.4 0.0
21/09:30am 29.8 31.3 20.6 57 6.1 ENE 13 20 7 11 1014.7 1014.4 0.0
21/09:00am 29.9 30.8 20.0 55 6.5 ENE 15 24 8 13 1014.5 1014.2 0.0
21/08:30am 28.9 29.5 20.2 59 5.7 ENE 17 24 9 13 1014.4 1014.1 0.0
21/08:00am 28.8 30.7 21.3 64 5.0 ENE 13 20 7 11 1014.3 1014.0 0.0
21/07:30am 27.2 28.0 20.7 67 4.3 ENE 17 24 9 13 1014.1 1013.8 0.0
21/07:00am 27.3 28.2 20.8 67 4.3 E 17 22 9 12 1013.9 1013.6 0.0
21/06:30am 27.1 27.9 20.7 68 4.2 E 17 28 9 15 1013.4 1013.1 0.0
21/06:00am 26.7 28.7 21.6 73 3.4 ESE 13 22 7 12 1013.0 1012.7 0.0
21/05:30am 26.1 27.6 21.3 75 3.2 E 15 22 8 12 1012.6 1012.3 0.0
21/05:00am 26.2 28.1 21.4 75 3.2 E 13 20 7 11 1012.2 1011.9 0.0
21/04:30am 26.1 27.7 21.4 75 3.1 E 15 20 8 11 1011.8 1011.5 0.0
21/04:00am 26.0 27.8 21.2 75 3.2 ENE 13 20 7 11 1011.6 1011.3 0.0
21/03:30am 25.7 27.2 21.3 76 2.9 ENE 15 20 8 11 1011.5 1011.2 0.0
21/03:00am 25.8 27.2 21.1 75 3.1 ENE 15 20 8 11 1011.8 1011.5 0.0
21/02:30am 25.7 27.6 21.3 76 2.9 ENE 13 19 7 10 1012.0 1011.7 0.0
21/02:00am 25.9 27.5 21.4 76 3.0 E 15 22 8 12 1012.1 1011.8 0.0
21/01:30am 25.9 28.0 21.7 77 2.8 ENE 13 22 7 12 1012.3 1012.0 0.0
21/01:00am 26.1 27.1 21.1 74 3.3 E 17 22 9 12 1012.5 1012.2 0.0
21/12:30am 26.3 28.4 21.7 76 3.1 ENE 13 22 7 12 1012.9 1012.6 0.0
21/12:00am 26.3 28.3 21.5 75 3.2 E 13 20 7 11 1013.1 1012.8 0.0
 
Date/Time
EST
Temp
°C
App
Temp
°C
Dew
Point
Rel
Hum
%
Delta-T
°C
Wind Press
QNH
hPa
Press
MSL
hPa
Rain
since 9 am
mm
Dir
 
Spd
km/h
Gust
km/h
Spd
kts
Gust
kts
20/11:30pm 26.2 26.8 21.1 73 3.4 E 19 24 10 13 1013.4 1013.1 0.0
20/11:00pm 26.4 28.3 21.4 74 3.3 E 13 22 7 12 1013.5 1013.2 0.0
20/10:30pm 26.4 28.1 20.9 72 3.6 ESE 13 20 7 11 1013.6 1013.3 0.0
20/10:00pm 26.4 27.7 20.9 72 3.6 E 15 28 8 15 1013.6 1013.3 0.0
20/09:30pm 26.6 27.6 20.3 68 4.1 ESE 15 22 8 12 1013.7 1013.4 0.0
20/09:00pm 26.6 28.8 21.2 72 3.6 ESE 11 20 6 11 1013.5 1013.2 0.0
20/08:30pm 26.6 27.8 20.7 70 3.9 E 15 26 8 14 1013.3 1013.0 0.0
20/08:00pm 26.6 27.6 21.0 71 3.7 E 17 28 9 15 1012.8 1012.5 0.0
20/07:30pm 26.8 27.9 20.4 68 4.2 ESE 15 26 8 14 1012.3 1012.0 0.0
20/07:00pm 26.9 28.6 21.7 73 3.5 ESE 15 22 8 12 1012.1 1011.8 0.0
20/06:30pm 27.2 28.7 21.3 70 3.9 ESE 15 20 8 11 1011.7 1011.4 0.0
20/06:00pm 27.5 28.8 21.7 70 3.9 ESE 17 24 9 13 1011.2 1010.9 0.0
20/05:30pm 28.3 30.1 21.9 68 4.3 SE 15 24 8 13 1010.5 1010.3 0.0
20/05:00pm 28.4 30.4 22.2 69 4.2 ESE 15 24 8 13 1010.4 1010.2 0.0
20/04:30pm 28.6 30.8 22.6 70 4.1 ESE 15 24 8 13 1010.2 1010.0 0.0
20/04:00pm 29.3 31.8 22.4 66 4.7 ESE 13 20 7 11 1010.2 1010.0 0.0
20/03:30pm 29.9 32.0 22.4 64 5.1 ESE 15 24 8 13 1010.3 1010.1 0.0
20/03:00pm 30.0 32.5 22.4 63 5.2 ESE 13 24 7 13 1010.5 1010.3 0.0
20/02:30pm 30.1 32.0 22.8 65 5.0 ESE 17 24 9 13 1010.8 1010.6 0.0
20/02:00pm 30.2 32.3 22.4 63 5.3 ESE 15 26 8 14 1011.3 1011.0 0.0
20/01:30pm 29.7 32.2 22.5 65 4.9 E 13 22 7 12 1011.4 1011.1 0.0
20/01:00pm 30.1 32.8 22.8 65 5.0 ESE 13 17 7 9 1011.4 1011.1 0.0
20/12:30pm 29.7 32.6 22.5 65 4.9 ESE 11 19 6 10 1011.5 1011.2 0.0
20/12:00pm 30.2 33.2 22.7 64 5.1 ESE 11 17 6 9 1012.2 1011.9 0.0
20/11:30am 29.4 31.9 22.5 66 4.7 E 13 19 7 10 1012.6 1012.3 0.0
20/11:00am 28.6 31.5 22.4 69 4.2 E 11 17 6 9 1012.8 1012.5 0.0
20/10:30am 29.5 32.8 23.2 69 4.3 SE 11 17 6 9 1013.0 1012.7 0.0
20/10:00am 29.2 32.8 23.1 69 4.2 ESE 9 13 5 7 1012.8 1012.5 0.0
20/09:30am 29.0 32.7 23.3 71 3.9 ESE 9 15 5 8 1012.9 1012.6 0.0
20/09:00am 28.2 31.8 23.1 74 3.5 SE 9 15 5 8 1012.9 1012.6 1.0
20/08:52am 28.8 32.9 23.9 75 3.4 SE 9 15 5 8 1012.8 1012.5 0.8
20/08:30am 27.4 31.2 23.5 79 2.7 SE 9 15 5 8 1012.8 1012.5 0.8
20/08:00am 27.4 30.9 23.6 80 2.6 SSE 11 15 6 8 1012.7 1012.4 0.8
20/07:30am 26.6 30.2 23.7 84 2.0 S 11 17 6 9 1012.6 1012.3 0.8
20/07:00am 26.0 29.8 24.0 89 1.4 S 11 17 6 9 1012.3 1012.0 0.8
20/06:30am 24.6 28.5 23.6 94 0.7 SSW 9 11 5 6 1012.1 1011.8 0.8
20/06:00am 23.7 27.4 23.3 98 0.3 SSW 9 13 5 7 1011.8 1011.5 0.8
20/05:30am 23.5 26.7 23.1 98 0.3 SSW 11 13 6 7 1011.4 1011.1 0.8
20/05:00am 23.5 27.1 23.1 98 0.3 SSW 9 11 5 6 1010.8 1010.6 0.8
20/04:30am 23.7 27.4 23.3 98 0.3 SW 9 11 5 6 1010.6 1010.4 0.8
20/04:00am 23.9 27.6 23.3 96 0.4 SW 9 13 5 7 1010.5 1010.3 0.8
20/03:30am 23.9 27.6 23.2 96 0.5 S 9 11 5 6 1010.6 1010.4 0.8
20/03:00am 24.3 28.3 23.1 93 0.8 SSE 7 11 4 6 1010.7 1010.5 0.8
20/02:30am 24.3 28.0 23.3 94 0.7 SE 9 17 5 9 1010.8 1010.6 0.8
20/02:00am 24.3 26.9 23.3 94 0.7 SE 15 20 8 11 1011.1 1010.8 0.8
20/01:30am 24.1 26.4 23.4 96 0.5 SE 17 30 9 16 1011.3 1011.0 0.6
20/01:00am 26.2 30.5 23.3 84 2.0 W 6 7 3 4 1011.5 1011.2 0.0
20/12:30am 25.9 29.9 22.8 83 2.1 NW 6 7 3 4 1011.8 1011.5 0.0
20/12:00am 26.1 29.9 22.7 81 2.3 NNW 7 7 4 4 1011.9 1011.6 0.0
 
Date/Time
EST
Temp
°C
App
Temp
°C
Dew
Point
Rel
Hum
%
Delta-T
°C
Wind Press
QNH
hPa
Press
MSL
hPa
Rain
since 9 am
mm
Dir
 
Spd
km/h
Gust
km/h
Spd
kts
Gust
kts
19/11:30pm 26.2 31.3 22.7 81 2.4 CALM 0 6 0 3 1012.1 1011.8 0.0
19/11:00pm 26.3 30.3 22.8 81 2.4 N 6 7 3 4 1012.5 1012.2 0.0
19/10:30pm 26.5 30.3 22.7 79 2.6 N 7 11 4 6 1012.5 1012.2 0.0
19/10:00pm 26.5 30.3 22.7 79 2.6 N 7 9 4 5 1012.5 1012.2 0.0
19/09:30pm 26.7 31.2 22.9 79 2.6 N 4 7 2 4 1012.5 1012.2 0.0
19/09:00pm 26.8 30.2 22.7 78 2.8 N 9 13 5 7 1012.2 1011.9 0.0
19/08:30pm 27.0 30.3 22.6 77 3.0 N 9 13 5 7 1012.1 1011.8 0.0
19/08:00pm 27.0 30.4 22.7 77 2.9 N 9 13 5 7 1011.9 1011.6 0.0

Other Formats:

Comma delimited format used in spreadsheet applications
http://www.bom.gov.au/fwo/IDQ60801/IDQ60801.94367.axf

JavaScript Object Notation format (JSON) in row-major order
http://www.bom.gov.au/fwo/IDQ60801/IDQ60801.94367.json